sensor_id;sensor_type;location;lat;lon;timestamp;temperature;humidity
14331;DHT22;7249;49.376;11.080;2024-02-16T00:00:55;7.30;99.90
14331;DHT22;7249;49.376;11.080;2024-02-16T00:03:22;7.30;99.90
14331;DHT22;7249;49.376;11.080;2024-02-16T00:05:48;7.20;99.90
14331;DHT22;7249;49.376;11.080;2024-02-16T00:08:18;7.10;99.90
14331;DHT22;7249;49.376;11.080;2024-02-16T00:10:43;7.10;99.90
14331;DHT22;7249;49.376;11.080;2024-02-16T00:13:10;7.00;99.90
14331;DHT22;7249;49.376;11.080;2024-02-16T00:15:35;7.00;99.90
14331;DHT22;7249;49.376;11.080;2024-02-16T00:18:01;6.90;99.90
14331;DHT22;7249;49.376;11.080;2024-02-16T00:20:28;6.90;99.90
14331;DHT22;7249;49.376;11.080;2024-02-16T00:22:54;6.80;99.90
14331;DHT22;7249;49.376;11.080;2024-02-16T00:25:20;6.80;99.90
14331;DHT22;7249;49.376;11.080;2024-02-16T00:27:46;6.80;99.90
14331;DHT22;7249;49.376;11.080;2024-02-16T00:30:12;6.70;99.90
14331;DHT22;7249;49.376;11.080;2024-02-16T00:32:37;6.70;99.90
14331;DHT22;7249;49.376;11.080;2024-02-16T00:35:03;6.70;99.90
14331;DHT22;7249;49.376;11.080;2024-02-16T00:37:29;6.70;99.90
14331;DHT22;7249;49.376;11.080;2024-02-16T00:39:55;6.70;99.90
14331;DHT22;7249;49.376;11.080;2024-02-16T00:42:21;6.70;99.90
14331;DHT22;7249;49.376;11.080;2024-02-16T00:44:52;6.70;99.90
14331;DHT22;7249;49.376;11.080;2024-02-16T00:47:17;6.80;99.90
14331;DHT22;7249;49.376;11.080;2024-02-16T00:49:43;6.70;99.90
14331;DHT22;7249;49.376;11.080;2024-02-16T00:52:09;6.80;99.90
14331;DHT22;7249;49.376;11.080;2024-02-16T00:54:36;6.80;99.90
14331;DHT22;7249;49.376;11.080;2024-02-16T00:57:02;6.80;99.90
14331;DHT22;7249;49.376;11.080;2024-02-16T00:59:28;6.80;99.90
14331;DHT22;7249;49.376;11.080;2024-02-16T01:01:54;6.90;99.90
14331;DHT22;7249;49.376;11.080;2024-02-16T01:04:19;6.90;99.90
14331;DHT22;7249;49.376;11.080;2024-02-16T01:06:45;6.90;99.90
14331;DHT22;7249;49.376;11.080;2024-02-16T01:09:11;6.90;99.90
14331;DHT22;7249;49.376;11.080;2024-02-16T01:11:41;7.00;99.90
14331;DHT22;7249;49.376;11.080;2024-02-16T01:14:08;7.00;99.90
14331;DHT22;7249;49.376;11.080;2024-02-16T01:16:33;7.00;99.90
14331;DHT22;7249;49.376;11.080;2024-02-16T01:18:59;7.10;99.90
14331;DHT22;7249;49.376;11.080;2024-02-16T01:21:25;7.00;99.90
14331;DHT22;7249;49.376;11.080;2024-02-16T01:23:50;7.00;99.90
14331;DHT22;7249;49.376;11.080;2024-02-16T01:26:16;7.10;99.90
14331;DHT22;7249;49.376;11.080;2024-02-16T01:28:42;7.10;99.90
14331;DHT22;7249;49.376;11.080;2024-02-16T01:31:07;7.10;99.90
14331;DHT22;7249;49.376;11.080;2024-02-16T01:33:37;7.00;99.90
14331;DHT22;7249;49.376;11.080;2024-02-16T01:36:04;7.00;99.90
14331;DHT22;7249;49.376;11.080;2024-02-16T01:38:29;7.00;99.90
14331;DHT22;7249;49.376;11.080;2024-02-16T01:40:55;7.00;99.90
14331;DHT22;7249;49.376;11.080;2024-02-16T01:43:21;7.00;99.90
14331;DHT22;7249;49.376;11.080;2024-02-16T01:45:47;7.00;99.90
14331;DHT22;7249;49.376;11.080;2024-02-16T01:48:14;7.00;99.90
14331;DHT22;7249;49.376;11.080;2024-02-16T01:50:43;6.90;99.90
14331;DHT22;7249;49.376;11.080;2024-02-16T01:53:09;6.90;99.90
14331;DHT22;7249;49.376;11.080;2024-02-16T01:55:36;7.00;99.90
14331;DHT22;7249;49.376;11.080;2024-02-16T01:58:02;7.00;99.90
14331;DHT22;7249;49.376;11.080;2024-02-16T02:00:28;6.90;99.90
14331;DHT22;7249;49.376;11.080;2024-02-16T02:02:54;6.90;99.90
14331;DHT22;7249;49.376;11.080;2024-02-16T02:05:19;6.90;99.90
14331;DHT22;7249;49.376;11.080;2024-02-16T02:07:45;6.80;99.90
14331;DHT22;7249;49.376;11.080;2024-02-16T02:10:11;6.80;99.90
14331;DHT22;7249;49.376;11.080;2024-02-16T02:12:39;6.80;99.90
14331;DHT22;7249;49.376;11.080;2024-02-16T02:15:05;6.80;99.90
14331;DHT22;7249;49.376;11.080;2024-02-16T02:17:31;6.80;99.90
14331;DHT22;7249;49.376;11.080;2024-02-16T02:19:57;6.70;99.90
14331;DHT22;7249;49.376;11.080;2024-02-16T02:22:22;6.80;99.90
14331;DHT22;7249;49.376;11.080;2024-02-16T02:24:48;6.70;99.90
14331;DHT22;7249;49.376;11.080;2024-02-16T02:27:14;6.70;99.90
14331;DHT22;7249;49.376;11.080;2024-02-16T02:29:40;6.70;99.90
14331;DHT22;7249;49.376;11.080;2024-02-16T02:32:07;6.70;99.90
14331;DHT22;7249;49.376;11.080;2024-02-16T02:34:33;6.70;99.90
14331;DHT22;7249;49.376;11.080;2024-02-16T02:36:59;6.70;99.90
14331;DHT22;7249;49.376;11.080;2024-02-16T02:39:25;6.70;99.90
14331;DHT22;7249;49.376;11.080;2024-02-16T02:41:51;6.70;99.90
14331;DHT22;7249;49.376;11.080;2024-02-16T02:44:17;6.70;99.90
14331;DHT22;7249;49.376;11.080;2024-02-16T02:46:44;6.70;99.90
14331;DHT22;7249;49.376;11.080;2024-02-16T02:49:10;6.80;99.90
14331;DHT22;7249;49.376;11.080;2024-02-16T02:51:36;6.80;99.90
14331;DHT22;7249;49.376;11.080;2024-02-16T02:54:01;6.80;99.90
14331;DHT22;7249;49.376;11.080;2024-02-16T02:56:27;6.80;99.90
14331;DHT22;7249;49.376;11.080;2024-02-16T02:58:53;6.70;99.90
14331;DHT22;7249;49.376;11.080;2024-02-16T03:01:18;6.70;99.90
14331;DHT22;7249;49.376;11.080;2024-02-16T03:03:46;6.70;99.90
14331;DHT22;7249;49.376;11.080;2024-02-16T03:06:12;6.70;99.90
14331;DHT22;7249;49.376;11.080;2024-02-16T03:08:37;6.70;99.90
14331;DHT22;7249;49.376;11.080;2024-02-16T03:11:03;6.70;99.90
14331;DHT22;7249;49.376;11.080;2024-02-16T03:13:30;6.70;99.90
14331;DHT22;7249;49.376;11.080;2024-02-16T03:15:56;6.70;99.90
14331;DHT22;7249;49.376;11.080;2024-02-16T03:18:22;6.60;99.90
14331;DHT22;7249;49.376;11.080;2024-02-16T03:20:48;6.60;99.90
14331;DHT22;7249;49.376;11.080;2024-02-16T03:23:15;6.70;99.90
14331;DHT22;7249;49.376;11.080;2024-02-16T03:25:41;6.60;99.90
14331;DHT22;7249;49.376;11.080;2024-02-16T03:28:12;6.70;99.90
14331;DHT22;7249;49.376;11.080;2024-02-16T03:30:38;6.70;99.90
14331;DHT22;7249;49.376;11.080;2024-02-16T03:33:04;6.70;99.90
14331;DHT22;7249;49.376;11.080;2024-02-16T03:35:29;6.60;99.90
14331;DHT22;7249;49.376;11.080;2024-02-16T03:37:55;6.60;99.90
14331;DHT22;7249;49.376;11.080;2024-02-16T03:40:22;6.60;99.90
14331;DHT22;7249;49.376;11.080;2024-02-16T03:42:48;6.60;99.90
14331;DHT22;7249;49.376;11.080;2024-02-16T03:45:14;6.60;99.90
14331;DHT22;7249;49.376;11.080;2024-02-16T03:47:42;6.60;99.90
14331;DHT22;7249;49.376;11.080;2024-02-16T03:50:08;6.50;99.90
14331;DHT22;7249;49.376;11.080;2024-02-16T03:52:34;6.60;99.90
14331;DHT22;7249;49.376;11.080;2024-02-16T03:55:00;6.60;99.90
14331;DHT22;7249;49.376;11.080;2024-02-16T03:57:26;6.60;99.90
14331;DHT22;7249;49.376;11.080;2024-02-16T03:59:51;6.50;99.90
14331;DHT22;7249;49.376;11.080;2024-02-16T04:02:17;6.60;99.90
14331;DHT22;7249;49.376;11.080;2024-02-16T04:04:44;6.60;99.90
14331;DHT22;7249;49.376;11.080;2024-02-16T04:07:10;6.60;99.90
14331;DHT22;7249;49.376;11.080;2024-02-16T04:09:35;6.60;99.90
14331;DHT22;7249;49.376;11.080;2024-02-16T04:12:01;6.60;99.90
14331;DHT22;7249;49.376;11.080;2024-02-16T04:14:29;6.60;99.90
14331;DHT22;7249;49.376;11.080;2024-02-16T04:16:55;6.60;99.90
14331;DHT22;7249;49.376;11.080;2024-02-16T04:19:26;6.60;99.90
14331;DHT22;7249;49.376;11.080;2024-02-16T04:21:52;6.60;99.90
14331;DHT22;7249;49.376;11.080;2024-02-16T04:24:18;6.70;99.90
14331;DHT22;7249;49.376;11.080;2024-02-16T04:26:44;6.80;99.90
14331;DHT22;7249;49.376;11.080;2024-02-16T04:29:10;6.80;99.90
14331;DHT22;7249;49.376;11.080;2024-02-16T04:31:39;7.00;99.90
14331;DHT22;7249;49.376;11.080;2024-02-16T04:34:05;7.00;99.90
14331;DHT22;7249;49.376;11.080;2024-02-16T04:36:31;7.10;99.90
14331;DHT22;7249;49.376;11.080;2024-02-16T04:38:56;7.20;99.90
14331;DHT22;7249;49.376;11.080;2024-02-16T04:41:22;7.30;99.90
14331;DHT22;7249;49.376;11.080;2024-02-16T04:43:48;7.40;99.90
14331;DHT22;7249;49.376;11.080;2024-02-16T04:46:15;7.50;99.90
14331;DHT22;7249;49.376;11.080;2024-02-16T04:48:41;7.50;99.90
14331;DHT22;7249;49.376;11.080;2024-02-16T04:51:06;7.60;99.90
14331;DHT22;7249;49.376;11.080;2024-02-16T04:53:32;7.60;99.90
14331;DHT22;7249;49.376;11.080;2024-02-16T04:55:57;7.70;99.90
14331;DHT22;7249;49.376;11.080;2024-02-16T04:58:24;7.70;99.90
14331;DHT22;7249;49.376;11.080;2024-02-16T05:00:49;7.80;99.90
14331;DHT22;7249;49.376;11.080;2024-02-16T05:03:15;7.80;99.90
14331;DHT22;7249;49.376;11.080;2024-02-16T05:05:41;7.80;99.90
14331;DHT22;7249;49.376;11.080;2024-02-16T05:08:07;7.90;99.90
14331;DHT22;7249;49.376;11.080;2024-02-16T05:10:32;7.90;99.90
14331;DHT22;7249;49.376;11.080;2024-02-16T05:12:58;7.90;99.90
14331;DHT22;7249;49.376;11.080;2024-02-16T05:15:24;7.90;99.90
14331;DHT22;7249;49.376;11.080;2024-02-16T05:17:49;8.00;99.90
14331;DHT22;7249;49.376;11.080;2024-02-16T05:20:16;8.00;99.90
14331;DHT22;7249;49.376;11.080;2024-02-16T05:22:46;8.00;99.90
14331;DHT22;7249;49.376;11.080;2024-02-16T05:25:13;8.00;99.90
14331;DHT22;7249;49.376;11.080;2024-02-16T05:27:39;8.10;99.90
14331;DHT22;7249;49.376;11.080;2024-02-16T05:30:05;8.10;99.90
14331;DHT22;7249;49.376;11.080;2024-02-16T05:32:36;8.10;99.90
14331;DHT22;7249;49.376;11.080;2024-02-16T05:35:03;8.10;99.90
14331;DHT22;7249;49.376;11.080;2024-02-16T05:37:37;8.10;99.90
14331;DHT22;7249;49.376;11.080;2024-02-16T05:40:03;8.00;99.90
14331;DHT22;7249;49.376;11.080;2024-02-16T05:42:47;8.10;99.90
14331;DHT22;7249;49.376;11.080;2024-02-16T05:45:17;8.10;99.90
14331;DHT22;7249;49.376;11.080;2024-02-16T05:47:43;8.10;99.90
14331;DHT22;7249;49.376;11.080;2024-02-16T05:50:14;8.10;99.90
14331;DHT22;7249;49.376;11.080;2024-02-16T05:52:41;8.10;99.90
14331;DHT22;7249;49.376;11.080;2024-02-16T05:55:07;8.10;99.90
14331;DHT22;7249;49.376;11.080;2024-02-16T05:57:34;8.10;99.90
14331;DHT22;7249;49.376;11.080;2024-02-16T06:00:00;8.10;99.90
14331;DHT22;7249;49.376;11.080;2024-02-16T06:02:26;8.10;99.90
14331;DHT22;7249;49.376;11.080;2024-02-16T06:04:53;8.00;99.90
14331;DHT22;7249;49.376;11.080;2024-02-16T06:07:18;8.00;99.90
14331;DHT22;7249;49.376;11.080;2024-02-16T06:09:44;7.90;99.90
14331;DHT22;7249;49.376;11.080;2024-02-16T06:12:10;7.90;99.90
14331;DHT22;7249;49.376;11.080;2024-02-16T06:14:37;7.80;99.90
14331;DHT22;7249;49.376;11.080;2024-02-16T06:17:03;7.80;99.90
14331;DHT22;7249;49.376;11.080;2024-02-16T06:19:29;7.70;99.90
14331;DHT22;7249;49.376;11.080;2024-02-16T06:21:55;7.70;99.90
14331;DHT22;7249;49.376;11.080;2024-02-16T06:24:24;7.70;99.90
14331;DHT22;7249;49.376;11.080;2024-02-16T06:26:50;7.60;99.90
14331;DHT22;7249;49.376;11.080;2024-02-16T06:29:17;7.70;99.90
14331;DHT22;7249;49.376;11.080;2024-02-16T06:31:48;7.70;99.90
14331;DHT22;7249;49.376;11.080;2024-02-16T06:34:14;7.60;99.90
14331;DHT22;7249;49.376;11.080;2024-02-16T06:36:40;7.70;99.90
14331;DHT22;7249;49.376;11.080;2024-02-16T06:39:06;7.70;99.90
14331;DHT22;7249;49.376;11.080;2024-02-16T06:41:32;7.70;99.90
14331;DHT22;7249;49.376;11.080;2024-02-16T06:43:58;7.70;99.90
14331;DHT22;7249;49.376;11.080;2024-02-16T06:46:23;7.70;99.90
14331;DHT22;7249;49.376;11.080;2024-02-16T06:48:50;7.70;99.90
14331;DHT22;7249;49.376;11.080;2024-02-16T06:51:17;7.80;99.90
14331;DHT22;7249;49.376;11.080;2024-02-16T06:53:43;7.80;99.90
14331;DHT22;7249;49.376;11.080;2024-02-16T06:56:09;7.70;99.90
14331;DHT22;7249;49.376;11.080;2024-02-16T06:58:35;7.70;99.90
14331;DHT22;7249;49.376;11.080;2024-02-16T07:01:03;7.70;99.90
14331;DHT22;7249;49.376;11.080;2024-02-16T07:03:29;7.70;99.90
14331;DHT22;7249;49.376;11.080;2024-02-16T07:05:55;7.70;99.90
14331;DHT22;7249;49.376;11.080;2024-02-16T07:08:20;7.70;99.90
14331;DHT22;7249;49.376;11.080;2024-02-16T07:10:49;7.70;99.90
14331;DHT22;7249;49.376;11.080;2024-02-16T07:13:17;7.70;99.90
14331;DHT22;7249;49.376;11.080;2024-02-16T07:15:43;7.80;99.90
14331;DHT22;7249;49.376;11.080;2024-02-16T07:18:09;7.80;99.90
14331;DHT22;7249;49.376;11.080;2024-02-16T07:20:35;7.90;99.90
14331;DHT22;7249;49.376;11.080;2024-02-16T07:23:02;7.90;99.90
14331;DHT22;7249;49.376;11.080;2024-02-16T07:25:27;8.00;99.90
14331;DHT22;7249;49.376;11.080;2024-02-16T07:27:53;8.10;99.90
14331;DHT22;7249;49.376;11.080;2024-02-16T07:30:19;8.10;99.90
14331;DHT22;7249;49.376;11.080;2024-02-16T07:32:49;8.10;99.90
14331;DHT22;7249;49.376;11.080;2024-02-16T07:35:16;8.20;99.90
14331;DHT22;7249;49.376;11.080;2024-02-16T07:37:42;8.20;99.90
14331;DHT22;7249;49.376;11.080;2024-02-16T07:40:09;8.30;99.90
14331;DHT22;7249;49.376;11.080;2024-02-16T07:42:38;8.30;99.90
14331;DHT22;7249;49.376;11.080;2024-02-16T07:45:05;8.40;99.90
14331;DHT22;7249;49.376;11.080;2024-02-16T07:47:32;8.50;99.90
14331;DHT22;7249;49.376;11.080;2024-02-16T07:49:57;8.50;99.90
14331;DHT22;7249;49.376;11.080;2024-02-16T07:52:23;8.60;99.90
14331;DHT22;7249;49.376;11.080;2024-02-16T07:54:48;8.80;99.90
14331;DHT22;7249;49.376;11.080;2024-02-16T07:57:17;8.90;99.90
14331;DHT22;7249;49.376;11.080;2024-02-16T07:59:43;9.10;99.90
14331;DHT22;7249;49.376;11.080;2024-02-16T08:02:09;9.20;99.90
14331;DHT22;7249;49.376;11.080;2024-02-16T08:04:35;9.40;99.90
14331;DHT22;7249;49.376;11.080;2024-02-16T08:07:01;9.40;99.90
14331;DHT22;7249;49.376;11.080;2024-02-16T08:09:27;9.60;99.90
14331;DHT22;7249;49.376;11.080;2024-02-16T08:11:53;9.70;99.90
14331;DHT22;7249;49.376;11.080;2024-02-16T08:14:18;9.80;99.90
14331;DHT22;7249;49.376;11.080;2024-02-16T08:16:44;9.90;99.90
14331;DHT22;7249;49.376;11.080;2024-02-16T08:19:10;10.00;99.90
14331;DHT22;7249;49.376;11.080;2024-02-16T08:21:36;10.10;99.90
14331;DHT22;7249;49.376;11.080;2024-02-16T08:24:01;10.30;99.90
14331;DHT22;7249;49.376;11.080;2024-02-16T08:26:28;10.80;99.90
14331;DHT22;7249;49.376;11.080;2024-02-16T08:28:53;11.30;99.90
14331;DHT22;7249;49.376;11.080;2024-02-16T08:31:19;11.90;99.90
14331;DHT22;7249;49.376;11.080;2024-02-16T08:33:45;12.40;99.90
14331;DHT22;7249;49.376;11.080;2024-02-16T08:36:12;13.10;99.90
14331;DHT22;7249;49.376;11.080;2024-02-16T08:38:38;14.00;99.90
14331;DHT22;7249;49.376;11.080;2024-02-16T08:41:03;14.70;99.90
14331;DHT22;7249;49.376;11.080;2024-02-16T08:43:29;14.90;99.90
14331;DHT22;7249;49.376;11.080;2024-02-16T08:45:55;14.70;99.90
14331;DHT22;7249;49.376;11.080;2024-02-16T08:48:22;14.30;99.90
14331;DHT22;7249;49.376;11.080;2024-02-16T08:50:47;13.80;99.90
14331;DHT22;7249;49.376;11.080;2024-02-16T08:53:13;13.30;99.90
14331;DHT22;7249;49.376;11.080;2024-02-16T08:55:40;13.00;99.90
14331;DHT22;7249;49.376;11.080;2024-02-16T08:58:07;12.60;99.90
14331;DHT22;7249;49.376;11.080;2024-02-16T09:00:34;12.40;99.90
14331;DHT22;7249;49.376;11.080;2024-02-16T09:03:00;12.30;99.90
14331;DHT22;7249;49.376;11.080;2024-02-16T09:05:28;12.10;99.90
14331;DHT22;7249;49.376;11.080;2024-02-16T09:07:54;12.00;99.90
14331;DHT22;7249;49.376;11.080;2024-02-16T09:10:19;12.00;99.90
14331;DHT22;7249;49.376;11.080;2024-02-16T09:12:45;12.00;99.90
14331;DHT22;7249;49.376;11.080;2024-02-16T09:15:11;12.00;99.90
14331;DHT22;7249;49.376;11.080;2024-02-16T09:17:38;12.10;99.90
14331;DHT22;7249;49.376;11.080;2024-02-16T09:20:04;12.30;99.90
14331;DHT22;7249;49.376;11.080;2024-02-16T09:22:30;12.40;99.90
14331;DHT22;7249;49.376;11.080;2024-02-16T09:24:56;12.60;99.90
14331;DHT22;7249;49.376;11.080;2024-02-16T09:27:25;12.80;99.90
14331;DHT22;7249;49.376;11.080;2024-02-16T09:29:51;13.10;99.90
14331;DHT22;7249;49.376;11.080;2024-02-16T09:32:17;13.40;99.90
14331;DHT22;7249;49.376;11.080;2024-02-16T09:34:43;13.80;99.90
14331;DHT22;7249;49.376;11.080;2024-02-16T09:37:08;14.30;99.90
14331;DHT22;7249;49.376;11.080;2024-02-16T09:39:34;14.60;99.90
14331;DHT22;7249;49.376;11.080;2024-02-16T09:42:00;14.60;99.90
14331;DHT22;7249;49.376;11.080;2024-02-16T09:44:26;14.50;99.90
14331;DHT22;7249;49.376;11.080;2024-02-16T09:46:54;14.40;99.90
14331;DHT22;7249;49.376;11.080;2024-02-16T09:49:20;14.30;99.90
14331;DHT22;7249;49.376;11.080;2024-02-16T09:51:46;14.20;99.90
14331;DHT22;7249;49.376;11.080;2024-02-16T09:54:12;14.10;99.90
14331;DHT22;7249;49.376;11.080;2024-02-16T09:56:38;14.00;99.90
14331;DHT22;7249;49.376;11.080;2024-02-16T09:59:03;14.00;99.90
14331;DHT22;7249;49.376;11.080;2024-02-16T10:01:29;13.80;99.90
14331;DHT22;7249;49.376;11.080;2024-02-16T10:04:06;13.70;99.90
14331;DHT22;7249;49.376;11.080;2024-02-16T10:06:33;13.60;99.90
14331;DHT22;7249;49.376;11.080;2024-02-16T10:08:58;13.60;99.90
14331;DHT22;7249;49.376;11.080;2024-02-16T10:11:27;13.60;99.90
14331;DHT22;7249;49.376;11.080;2024-02-16T10:14:03;13.60;99.90
14331;DHT22;7249;49.376;11.080;2024-02-16T10:16:30;13.60;99.90
14331;DHT22;7249;49.376;11.080;2024-02-16T10:18:57;13.60;99.90
14331;DHT22;7249;49.376;11.080;2024-02-16T10:21:28;13.60;99.90
14331;DHT22;7249;49.376;11.080;2024-02-16T10:24:01;13.50;99.90
14331;DHT22;7249;49.376;11.080;2024-02-16T10:26:31;13.40;99.90
14331;DHT22;7249;49.376;11.080;2024-02-16T10:28:57;13.40;99.90
14331;DHT22;7249;49.376;11.080;2024-02-16T10:31:25;13.30;99.90
14331;DHT22;7249;49.376;11.080;2024-02-16T10:33:57;13.20;99.90
14331;DHT22;7249;49.376;11.080;2024-02-16T10:36:25;13.20;99.90
14331;DHT22;7249;49.376;11.080;2024-02-16T10:38:54;13.20;99.90
14331;DHT22;7249;49.376;11.080;2024-02-16T10:41:42;13.20;99.90
14331;DHT22;7249;49.376;11.080;2024-02-16T10:44:08;13.20;99.90
14331;DHT22;7249;49.376;11.080;2024-02-16T10:46:34;13.20;99.90
14331;DHT22;7249;49.376;11.080;2024-02-16T10:49:00;13.20;99.90
14331;DHT22;7249;49.376;11.080;2024-02-16T10:51:37;13.20;99.90
14331;DHT22;7249;49.376;11.080;2024-02-16T10:54:05;13.20;99.90
14331;DHT22;7249;49.376;11.080;2024-02-16T10:56:39;13.30;99.90
14331;DHT22;7249;49.376;11.080;2024-02-16T10:59:07;13.30;99.90
14331;DHT22;7249;49.376;11.080;2024-02-16T11:01:44;13.30;99.90
14331;DHT22;7249;49.376;11.080;2024-02-16T11:04:16;13.40;99.90
14331;DHT22;7249;49.376;11.080;2024-02-16T11:06:49;13.40;99.90
14331;DHT22;7249;49.376;11.080;2024-02-16T11:09:44;13.40;99.90
14331;DHT22;7249;49.376;11.080;2024-02-16T11:12:13;13.40;99.90
14331;DHT22;7249;49.376;11.080;2024-02-16T11:17:19;13.40;99.90
14331;DHT22;7249;49.376;11.080;2024-02-16T11:19:46;13.40;99.90
14331;DHT22;7249;49.376;11.080;2024-02-16T11:22:19;13.40;99.90
14331;DHT22;7249;49.376;11.080;2024-02-16T11:24:47;13.40;99.90
14331;DHT22;7249;49.376;11.080;2024-02-16T11:27:13;13.40;99.90
14331;DHT22;7249;49.376;11.080;2024-02-16T11:29:47;13.40;99.90
14331;DHT22;7249;49.376;11.080;2024-02-16T11:32:14;13.40;99.90
14331;DHT22;7249;49.376;11.080;2024-02-16T11:34:39;13.40;99.90
14331;DHT22;7249;49.376;11.080;2024-02-16T11:37:05;13.40;99.90
14331;DHT22;7249;49.376;11.080;2024-02-16T11:39:32;13.50;99.90
14331;DHT22;7249;49.376;11.080;2024-02-16T11:42:11;13.50;99.90
14331;DHT22;7249;49.376;11.080;2024-02-16T11:44:38;13.60;99.90
14331;DHT22;7249;49.376;11.080;2024-02-16T11:47:07;13.60;99.90
14331;DHT22;7249;49.376;11.080;2024-02-16T11:49:37;13.70;99.90
14331;DHT22;7249;49.376;11.080;2024-02-16T11:52:07;13.80;99.90
14331;DHT22;7249;49.376;11.080;2024-02-16T11:54:34;13.90;99.90
14331;DHT22;7249;49.376;11.080;2024-02-16T11:57:00;13.80;99.90
14331;DHT22;7249;49.376;11.080;2024-02-16T11:59:26;13.90;99.90
14331;DHT22;7249;49.376;11.080;2024-02-16T12:01:56;13.90;99.90
14331;DHT22;7249;49.376;11.080;2024-02-16T12:04:27;14.00;99.90
14331;DHT22;7249;49.376;11.080;2024-02-16T12:07:00;14.00;99.90
14331;DHT22;7249;49.376;11.080;2024-02-16T12:09:27;14.10;99.90
14331;DHT22;7249;49.376;11.080;2024-02-16T12:11:54;14.10;99.90
14331;DHT22;7249;49.376;11.080;2024-02-16T12:14:23;14.10;99.90
14331;DHT22;7249;49.376;11.080;2024-02-16T12:16:49;14.20;99.90
14331;DHT22;7249;49.376;11.080;2024-02-16T12:19:16;14.10;99.90
14331;DHT22;7249;49.376;11.080;2024-02-16T12:21:49;14.10;99.90
14331;DHT22;7249;49.376;11.080;2024-02-16T12:24:15;14.10;99.90
14331;DHT22;7249;49.376;11.080;2024-02-16T12:26:40;14.20;99.90
14331;DHT22;7249;49.376;11.080;2024-02-16T12:29:06;14.20;99.90
14331;DHT22;7249;49.376;11.080;2024-02-16T12:31:32;14.20;99.90
14331;DHT22;7249;49.376;11.080;2024-02-16T12:33:58;14.20;99.90
14331;DHT22;7249;49.376;11.080;2024-02-16T12:36:23;14.30;99.90
14331;DHT22;7249;49.376;11.080;2024-02-16T12:38:50;14.40;99.90
14331;DHT22;7249;49.376;11.080;2024-02-16T12:41:16;14.40;99.90
14331;DHT22;7249;49.376;11.080;2024-02-16T12:43:41;14.50;99.90
14331;DHT22;7249;49.376;11.080;2024-02-16T12:46:07;14.50;99.90
14331;DHT22;7249;49.376;11.080;2024-02-16T12:48:33;14.60;99.90
14331;DHT22;7249;49.376;11.080;2024-02-16T12:50:58;14.70;99.90
14331;DHT22;7249;49.376;11.080;2024-02-16T12:53:24;14.80;99.90
14331;DHT22;7249;49.376;11.080;2024-02-16T12:55:51;14.70;99.90
14331;DHT22;7249;49.376;11.080;2024-02-16T12:58:17;14.80;99.90
14331;DHT22;7249;49.376;11.080;2024-02-16T13:00:42;14.80;99.90
14331;DHT22;7249;49.376;11.080;2024-02-16T13:03:08;15.00;99.90
14331;DHT22;7249;49.376;11.080;2024-02-16T13:05:34;15.00;99.90
14331;DHT22;7249;49.376;11.080;2024-02-16T13:08:00;15.10;99.90
14331;DHT22;7249;49.376;11.080;2024-02-16T13:10:25;15.10;99.90
14331;DHT22;7249;49.376;11.080;2024-02-16T13:12:51;15.10;99.90
14331;DHT22;7249;49.376;11.080;2024-02-16T13:15:17;15.20;99.90
14331;DHT22;7249;49.376;11.080;2024-02-16T13:17:42;15.30;99.90
14331;DHT22;7249;49.376;11.080;2024-02-16T13:20:08;15.50;99.90
14331;DHT22;7249;49.376;11.080;2024-02-16T13:22:36;15.50;99.90
14331;DHT22;7249;49.376;11.080;2024-02-16T13:25:04;15.60;99.90
14331;DHT22;7249;49.376;11.080;2024-02-16T13:27:31;15.70;99.90
14331;DHT22;7249;49.376;11.080;2024-02-16T13:29:57;15.90;99.90
14331;DHT22;7249;49.376;11.080;2024-02-16T13:32:23;15.90;99.90
14331;DHT22;7249;49.376;11.080;2024-02-16T13:34:48;15.70;99.90
14331;DHT22;7249;49.376;11.080;2024-02-16T13:37:14;15.70;99.90
14331;DHT22;7249;49.376;11.080;2024-02-16T13:39:40;15.50;99.90
14331;DHT22;7249;49.376;11.080;2024-02-16T13:42:05;15.40;99.90
14331;DHT22;7249;49.376;11.080;2024-02-16T13:44:31;15.30;99.90
14331;DHT22;7249;49.376;11.080;2024-02-16T13:46:57;15.20;99.90
14331;DHT22;7249;49.376;11.080;2024-02-16T13:49:23;15.10;99.90
14331;DHT22;7249;49.376;11.080;2024-02-16T13:51:49;15.00;99.90
14331;DHT22;7249;49.376;11.080;2024-02-16T13:54:15;15.00;99.90
14331;DHT22;7249;49.376;11.080;2024-02-16T13:56:41;14.90;99.90
14331;DHT22;7249;49.376;11.080;2024-02-16T13:59:06;14.90;99.90
14331;DHT22;7249;49.376;11.080;2024-02-16T14:01:33;14.80;99.90
14331;DHT22;7249;49.376;11.080;2024-02-16T14:03:59;14.80;99.90
14331;DHT22;7249;49.376;11.080;2024-02-16T14:06:26;14.80;99.90
14331;DHT22;7249;49.376;11.080;2024-02-16T14:08:51;14.80;99.90
14331;DHT22;7249;49.376;11.080;2024-02-16T14:11:20;14.80;99.90
14331;DHT22;7249;49.376;11.080;2024-02-16T14:13:48;14.80;99.90
14331;DHT22;7249;49.376;11.080;2024-02-16T14:16:14;14.70;99.90
14331;DHT22;7249;49.376;11.080;2024-02-16T14:18:40;14.70;99.90
14331;DHT22;7249;49.376;11.080;2024-02-16T14:21:05;14.70;99.90
14331;DHT22;7249;49.376;11.080;2024-02-16T14:23:32;14.60;99.90
14331;DHT22;7249;49.376;11.080;2024-02-16T14:25:58;14.60;99.90
14331;DHT22;7249;49.376;11.080;2024-02-16T14:28:24;14.60;99.90
14331;DHT22;7249;49.376;11.080;2024-02-16T14:30:50;14.50;99.90
14331;DHT22;7249;49.376;11.080;2024-02-16T14:33:19;14.50;99.90
14331;DHT22;7249;49.376;11.080;2024-02-16T14:35:44;14.50;99.90
14331;DHT22;7249;49.376;11.080;2024-02-16T14:38:11;14.40;99.90
14331;DHT22;7249;49.376;11.080;2024-02-16T14:40:38;14.30;99.90
14331;DHT22;7249;49.376;11.080;2024-02-16T14:43:04;14.30;99.90
14331;DHT22;7249;49.376;11.080;2024-02-16T14:45:30;14.20;99.90
14331;DHT22;7249;49.376;11.080;2024-02-16T14:47:56;14.20;99.90
14331;DHT22;7249;49.376;11.080;2024-02-16T14:50:23;14.10;99.90
14331;DHT22;7249;49.376;11.080;2024-02-16T14:52:50;14.10;99.90
14331;DHT22;7249;49.376;11.080;2024-02-16T14:55:15;14.00;99.90
14331;DHT22;7249;49.376;11.080;2024-02-16T14:57:42;14.00;99.90
14331;DHT22;7249;49.376;11.080;2024-02-16T15:00:09;13.90;99.90
14331;DHT22;7249;49.376;11.080;2024-02-16T15:02:36;13.90;99.90
14331;DHT22;7249;49.376;11.080;2024-02-16T15:05:04;13.80;99.90
14331;DHT22;7249;49.376;11.080;2024-02-16T15:07:29;13.80;99.90
14331;DHT22;7249;49.376;11.080;2024-02-16T15:09:55;13.70;99.90
14331;DHT22;7249;49.376;11.080;2024-02-16T15:12:21;13.60;99.90
14331;DHT22;7249;49.376;11.080;2024-02-16T15:14:47;13.60;99.90
14331;DHT22;7249;49.376;11.080;2024-02-16T15:17:13;13.60;99.90
14331;DHT22;7249;49.376;11.080;2024-02-16T15:19:39;13.50;99.90
14331;DHT22;7249;49.376;11.080;2024-02-16T15:22:05;13.40;99.90
14331;DHT22;7249;49.376;11.080;2024-02-16T15:24:32;13.40;99.90
14331;DHT22;7249;49.376;11.080;2024-02-16T15:26:57;13.40;99.90
14331;DHT22;7249;49.376;11.080;2024-02-16T15:29:23;13.40;99.90
14331;DHT22;7249;49.376;11.080;2024-02-16T15:31:48;13.40;99.90
14331;DHT22;7249;49.376;11.080;2024-02-16T15:34:14;13.30;99.90
14331;DHT22;7249;49.376;11.080;2024-02-16T15:36:40;13.30;99.90
14331;DHT22;7249;49.376;11.080;2024-02-16T15:39:07;13.30;99.90